Time;durP1;ratioP1;P1;durP2;ratioP2;P2;SDS_P1;SDS_P2;PMS_P1;PMS_P2;Temp;Humidity;BMP_temperature;BMP_pressure;BME280_temperature;BME280_humidity;BME280_pressure;Samples;Min_cycle;Max_cycle;Signal;HPM_P1;HPM_P2
2024/01/03 00:01:59;;;;;;;0.70;0.70;;;;;9.70;94449.00;;;;8267679;28;20230;-72
2024/01/03 00:06:08;;;;;;;1.13;0.80;;;;;9.70;94451.00;;;;8269144;28;20534;-72
2024/01/03 00:10:29;;;;;;;0.60;0.60;;;;;9.70;94458.00;;;;8267604;28;20189;-72
2024/01/03 00:14:35;;;;;;;0.70;0.70;;;;;9.70;94461.00;;;;8267070;28;20197;-72
2024/01/03 00:18:40;;;;;;;0.80;0.80;;;;;9.80;94456.00;;;;8266788;28;20273;-72
2024/01/03 00:22:43;;;;;;;0.70;0.70;;;;;9.80;94463.00;;;;8267515;28;20277;-72
2024/01/03 00:26:47;;;;;;;0.60;0.60;;;;;9.70;94461.00;;;;8267739;28;20277;-72
2024/01/03 00:30:52;;;;;;;0.70;0.70;;;;;9.60;94454.00;;;;8266854;28;20224;-72
2024/01/03 00:34:58;;;;;;;0.80;0.80;;;;;9.50;94460.00;;;;8267076;28;20647;-72
2024/01/03 00:39:01;;;;;;;0.80;0.80;;;;;9.40;94452.00;;;;8266027;28;20203;-72
2024/01/03 00:43:04;;;;;;;1.55;0.77;;;;;9.40;94452.00;;;;8267001;28;20619;-72
2024/01/03 00:47:09;;;;;;;0.80;0.80;;;;;9.40;94468.00;;;;8266080;28;20195;-72
2024/01/03 00:51:12;;;;;;;0.70;0.70;;;;;9.60;94474.00;;;;8266254;28;20226;-72
2024/01/03 00:55:16;;;;;;;0.73;0.73;;;;;9.60;94486.00;;;;8266569;28;20627;-72
2024/01/03 00:59:19;;;;;;;0.90;0.90;;;;;9.50;94483.00;;;;8266419;28;20204;-72
2024/01/03 01:03:24;;;;;;;1.00;1.00;;;;;9.40;94475.00;;;;8266390;28;20226;-71
2024/01/03 01:07:27;;;;;;;1.00;1.00;;;;;9.40;94485.00;;;;8264462;28;20230;-73
2024/01/03 01:11:30;;;;;;;0.80;0.80;;;;;9.40;94493.00;;;;8266190;28;20612;-72
2024/01/03 01:15:33;;;;;;;0.85;0.85;;;;;9.40;94494.00;;;;8265298;28;20201;-72
2024/01/03 01:19:38;;;;;;;1.05;1.05;;;;;9.50;94490.00;;;;8266204;28;20232;-72
2024/01/03 01:23:42;;;;;;;1.95;1.00;;;;;9.60;94505.00;;;;8265204;28;20190;-72
2024/01/03 01:27:45;;;;;;;0.82;0.82;;;;;9.60;94505.00;;;;8266089;28;20600;-72
2024/01/03 01:31:51;;;;;;;1.30;0.98;;;;;9.60;94506.00;;;;8265837;28;20206;-72
2024/01/03 01:35:55;;;;;;;1.15;1.02;;;;;9.60;94524.00;;;;8265583;28;20377;-72
2024/01/03 01:39:59;;;;;;;0.98;0.88;;;;;9.70;94530.00;;;;8266014;28;20198;-73
2024/01/03 01:44:02;;;;;;;1.00;1.00;;;;;9.80;94535.00;;;;8271546;28;20233;-73
2024/01/03 01:48:05;;;;;;;0.70;0.70;;;;;9.70;94542.00;;;;8271881;28;20202;-73
2024/01/03 01:52:18;;;;;;;0.93;0.93;;;;;9.80;94540.00;;;;8272583;28;20230;-73
2024/01/03 01:56:22;;;;;;;0.85;0.85;;;;;9.80;94537.00;;;;8272535;28;20198;-73
2024/01/03 02:00:26;;;;;;;0.90;0.90;;;;;9.90;94534.00;;;;8271397;28;20521;-73
2024/01/03 02:04:29;;;;;;;1.00;1.00;;;;;9.90;94536.00;;;;8272243;28;20229;-73
2024/01/03 02:08:34;;;;;;;0.80;0.80;;;;;9.80;94548.00;;;;8271454;28;20290;-73
2024/01/03 02:12:38;;;;;;;0.80;0.80;;;;;9.80;94535.00;;;;8272049;28;20210;-73
2024/01/03 02:16:42;;;;;;;0.80;0.80;;;;;9.80;94534.00;;;;8270214;28;20282;-73
2024/01/03 02:20:45;;;;;;;0.80;0.80;;;;;9.90;94528.00;;;;8272015;28;20536;-73
2024/01/03 02:24:50;;;;;;;0.90;0.90;;;;;9.90;94547.00;;;;8271102;28;20650;-73
2024/01/03 02:28:53;;;;;;;2.17;0.77;;;;;9.90;94536.00;;;;8270312;28;20612;-73
2024/01/03 02:32:56;;;;;;;0.93;0.90;;;;;9.90;94546.00;;;;8270829;28;20229;-73
2024/01/03 02:37:00;;;;;;;0.77;0.77;;;;;9.90;94542.00;;;;8270568;28;20475;-73
2024/01/03 02:41:05;;;;;;;0.70;0.70;;;;;10.00;94556.00;;;;8270604;28;20544;-73
2024/01/03 02:45:09;;;;;;;0.80;0.80;;;;;10.00;94550.00;;;;8270556;28;20612;-73
2024/01/03 02:49:12;;;;;;;0.88;0.60;;;;;10.00;94551.00;;;;8270629;28;20528;-73
2024/01/03 02:53:15;;;;;;;0.80;0.80;;;;;10.00;94547.00;;;;8269762;28;20742;-73
2024/01/03 02:57:20;;;;;;;1.20;0.80;;;;;9.80;94557.00;;;;8270138;28;20202;-73
2024/01/03 03:01:23;;;;;;;1.65;0.90;;;;;9.70;94558.00;;;;8304009;22;20364;-75
2024/01/03 03:05:26;;;;;;;1.40;1.23;;;;;9.70;94552.00;;;;8288278;28;21244;-75
2024/01/03 03:09:29;;;;;;;0.90;0.82;;;;;9.80;94531.00;;;;8292289;28;20263;-76
2024/01/03 03:13:34;;;;;;;0.82;0.82;;;;;9.70;94552.00;;;;8290678;28;20237;-75
2024/01/03 03:17:37;;;;;;;2.03;1.10;;;;;9.60;94546.00;;;;8292607;28;21321;-74
2024/01/03 03:21:41;;;;;;;2.92;0.80;;;;;9.60;94559.00;;;;8291719;28;20196;-74
2024/01/03 03:25:44;;;;;;;2.83;0.88;;;;;9.60;94558.00;;;;8291999;28;20218;-74
2024/01/03 03:29:49;;;;;;;1.85;0.80;;;;;9.60;94568.00;;;;8290575;28;20282;-75
2024/01/03 03:33:53;;;;;;;1.58;0.80;;;;;9.60;94567.00;;;;8289874;28;20935;-75
2024/01/03 03:37:57;;;;;;;1.52;0.93;;;;;9.60;94563.00;;;;8287586;28;20229;-73
2024/01/03 03:42:00;;;;;;;1.88;0.80;;;;;9.60;94560.00;;;;8291087;28;20292;-73
2024/01/03 03:46:05;;;;;;;1.80;0.90;;;;;9.60;94568.00;;;;8290234;28;20229;-75
2024/01/03 03:50:08;;;;;;;2.25;0.93;;;;;9.70;94585.00;;;;8289859;28;20198;-75
2024/01/03 03:54:11;;;;;;;1.33;0.75;;;;;9.70;94580.00;;;;8288880;28;20313;-75
2024/01/03 03:58:14;;;;;;;1.77;0.95;;;;;9.70;94576.00;;;;8290029;28;20636;-73
2024/01/03 04:02:19;;;;;;;1.98;0.95;;;;;9.70;94596.00;;;;8283069;28;20237;-75
2024/01/03 04:06:22;;;;;;;0.70;0.70;;;;;9.60;94590.00;;;;8271192;28;20275;-74
2024/01/03 04:10:25;;;;;;;0.70;0.70;;;;;9.40;94579.00;;;;8265403;28;20206;-75
2024/01/03 04:14:28;;;;;;;3.05;1.38;;;;;9.40;94577.00;;;;8266251;28;20332;-75
2024/01/03 04:18:34;;;;;;;1.45;0.80;;;;;9.40;94569.00;;;;8263707;28;20278;-76
2024/01/03 04:22:37;;;;;;;0.80;0.80;;;;;9.40;94561.00;;;;8264588;28;20199;-75
2024/01/03 04:26:40;;;;;;;0.80;0.80;;;;;9.50;94575.00;;;;8264857;28;20202;-76
2024/01/03 04:30:43;;;;;;;0.80;0.80;;;;;9.50;94580.00;;;;8265663;28;20198;-75
2024/01/03 04:34:48;;;;;;;1.05;0.90;;;;;9.60;94574.00;;;;8265756;28;20230;-75
2024/01/03 04:38:51;;;;;;;1.65;1.10;;;;;9.60;94574.00;;;;8264828;28;21786;-74
2024/01/03 04:42:54;;;;;;;3.20;1.10;;;;;9.70;94577.00;;;;8266206;28;20197;-76
2024/01/03 04:46:57;;;;;;;2.08;1.10;;;;;9.70;94577.00;;;;8263040;28;20675;-74
2024/01/03 04:51:02;;;;;;;0.70;0.70;;;;;9.60;94593.00;;;;8260789;28;20197;-75
2024/01/03 04:55:06;;;;;;;2.90;0.80;;;;;9.60;94590.00;;;;8264717;28;20228;-76
2024/01/03 04:59:09;;;;;;;0.82;0.82;;;;;9.60;94584.00;;;;8263625;28;20413;-74
2024/01/03 05:03:13;;;;;;;0.70;0.70;;;;;9.50;94579.00;;;;8263242;28;22070;-74
2024/01/03 05:07:17;;;;;;;0.98;0.90;;;;;9.60;94597.00;;;;8263998;28;20197;-76
2024/01/03 05:11:21;;;;;;;1.00;0.77;;;;;9.50;94599.00;;;;8261578;28;20256;-75
2024/01/03 05:15:24;;;;;;;0.95;0.70;;;;;9.50;94592.00;;;;8263536;28;20241;-75
2024/01/03 05:19:27;;;;;;;0.80;0.80;;;;;9.40;94588.00;;;;8268424;28;20190;-75
2024/01/03 05:23:32;;;;;;;2.47;0.80;;;;;9.30;94593.00;;;;8271720;28;20264;-75
2024/01/03 05:27:35;;;;;;;1.27;0.90;;;;;9.40;94598.00;;;;8270810;28;20214;-76
2024/01/03 05:31:39;;;;;;;0.85;0.82;;;;;9.30;94590.00;;;;8269169;28;20324;-76
2024/01/03 05:35:42;;;;;;;0.80;0.80;;;;;9.40;94606.00;;;;8269253;28;20853;-75
2024/01/03 05:39:46;;;;;;;0.60;0.60;;;;;9.40;94601.00;;;;8272589;28;20215;-75
2024/01/03 05:43:49;;;;;;;1.10;0.88;;;;;9.50;94626.00;;;;8269065;28;20206;-76
2024/01/03 05:47:52;;;;;;;1.27;0.90;;;;;9.60;94637.00;;;;8269513;28;20202;-74
2024/01/03 05:51:56;;;;;;;0.80;0.80;;;;;9.60;94604.00;;;;8267194;28;20225;-76
2024/01/03 05:56:01;;;;;;;3.40;1.20;;;;;9.70;94606.00;;;;8268489;28;20320;-76
2024/01/03 06:00:05;;;;;;;1.20;1.10;;;;;9.70;94621.00;;;;8266025;28;20289;-75
2024/01/03 06:04:09;;;;;;;0.80;0.80;;;;;9.70;94623.00;;;;8268721;28;20272;-76
2024/01/03 06:08:12;;;;;;;0.82;0.82;;;;;9.80;94624.00;;;;8269751;28;20252;-76
2024/01/03 06:12:17;;;;;;;2.15;0.90;;;;;9.90;94617.00;;;;8259867;28;20213;-76
2024/01/03 06:16:21;;;;;;;0.88;0.88;;;;;9.90;94631.00;;;;8255848;28;20321;-76
2024/01/03 06:20:24;;;;;;;1.08;1.00;;;;;9.90;94632.00;;;;8249199;28;20209;-75
2024/01/03 06:24:27;;;;;;;2.05;1.08;;;;;9.90;94639.00;;;;8262514;28;20200;-75
2024/01/03 06:28:31;;;;;;;0.80;0.80;;;;;9.90;94635.00;;;;8256615;28;20236;-76
2024/01/03 06:32:34;;;;;;;0.90;0.90;;;;;9.90;94637.00;;;;8265976;28;20197;-74
2024/01/03 06:36:38;;;;;;;1.42;0.90;;;;;9.90;94646.00;;;;8265483;28;20236;-74
2024/01/03 06:40:41;;;;;;;3.17;1.10;;;;;9.70;94644.00;;;;8262048;28;20687;-74
2024/01/03 06:44:45;;;;;;;0.95;0.95;;;;;9.60;94649.00;;;;8263888;28;20201;-75
2024/01/03 06:48:48;;;;;;;1.98;0.93;;;;;9.50;94653.00;;;;8263522;28;20194;-75
2024/01/03 06:52:52;;;;;;;0.93;0.93;;;;;9.50;94658.00;;;;8262703;28;20324;-74
2024/01/03 06:56:55;;;;;;;0.93;0.93;;;;;9.50;94666.00;;;;8252594;28;20279;-74
2024/01/03 07:01:00;;;;;;;1.75;1.10;;;;;9.60;94667.00;;;;8256617;28;20657;-75
2024/01/03 07:05:03;;;;;;;1.23;1.00;;;;;9.60;94674.00;;;;8257472;28;20221;-75
2024/01/03 07:09:08;;;;;;;1.63;1.02;;;;;9.70;94684.00;;;;8261212;28;20252;-76
2024/01/03 07:13:11;;;;;;;3.40;1.00;;;;;9.60;94683.00;;;;8263212;28;22085;-75
2024/01/03 07:17:15;;;;;;;2.05;1.13;;;;;9.50;94707.00;;;;8259696;28;20761;-75
2024/01/03 07:21:19;;;;;;;2.30;1.10;;;;;9.40;94696.00;;;;8259974;28;20789;-73
2024/01/03 07:25:23;;;;;;;1.92;0.90;;;;;9.40;94693.00;;;;8257926;28;20245;-76
2024/01/03 07:29:26;;;;;;;1.33;0.90;;;;;9.30;94696.00;;;;8253631;28;20230;-76
2024/01/03 07:33:30;;;;;;;2.17;1.40;;;;;9.20;94702.00;;;;8257258;28;20272;-75
2024/01/03 07:37:34;;;;;;;2.75;1.10;;;;;9.20;94697.00;;;;8257652;28;22299;-75
2024/01/03 07:41:37;;;;;;;0.88;0.77;;;;;9.10;94702.00;;;;8257604;28;20196;-75
2024/01/03 07:45:40;;;;;;;1.00;1.00;;;;;9.20;94701.00;;;;8260059;28;20293;-74
2024/01/03 07:49:45;;;;;;;0.93;0.93;;;;;9.20;94699.00;;;;8260487;28;20340;-75
2024/01/03 07:53:48;;;;;;;1.20;1.10;;;;;9.20;94698.00;;;;8256447;28;20940;-75
2024/01/03 07:57:51;;;;;;;1.30;1.20;;;;;9.20;94701.00;;;;8258708;28;20206;-76
2024/01/03 08:01:55;;;;;;;0.90;0.88;;;;;9.30;94692.00;;;;8258650;28;20240;-74
2024/01/03 08:05:59;;;;;;;1.10;1.05;;;;;9.30;94690.00;;;;8258081;28;20239;-75
2024/01/03 08:10:08;;;;;;;2.78;1.00;;;;;9.30;94683.00;;;;8254411;28;20218;-74
2024/01/03 08:14:12;;;;;;;2.42;1.13;;;;;9.30;94672.00;;;;8256557;28;20244;-74
2024/01/03 08:18:15;;;;;;;0.85;0.85;;;;;9.30;94688.00;;;;8256619;28;20215;-75
2024/01/03 08:22:20;;;;;;;1.90;1.00;;;;;9.30;94698.00;;;;8254224;28;20202;-74
2024/01/03 08:26:23;;;;;;;1.05;0.90;;;;;9.40;94675.00;;;;8259263;28;20366;-74
2024/01/03 08:30:26;;;;;;;3.67;1.13;;;;;9.40;94690.00;;;;8259361;28;20202;-75
2024/01/03 08:34:29;;;;;;;2.38;1.00;;;;;9.50;94689.00;;;;8278069;28;20222;-73
2024/01/03 08:38:35;;;;;;;1.58;0.93;;;;;9.60;94693.00;;;;8298796;28;20247;-73
2024/01/03 08:42:38;;;;;;;2.10;1.13;;;;;9.70;94693.00;;;;8298743;28;20182;-73
2024/01/03 08:46:42;;;;;;;4.65;1.00;;;;;9.80;94691.00;;;;8298481;28;20278;-73
2024/01/03 08:50:45;;;;;;;1.92;1.00;;;;;10.00;94684.00;;;;8298439;28;20247;-73
2024/01/03 08:54:50;;;;;;;1.83;1.00;;;;;10.20;94677.00;;;;8298505;28;20225;-73
2024/01/03 08:58:53;;;;;;;1.60;1.15;;;;;10.10;94675.00;;;;8298541;28;20229;-73
2024/01/03 09:03:00;;;;;;;1.05;1.00;;;;;10.20;94683.00;;;;8297849;28;20225;-72
2024/01/03 09:07:03;;;;;;;0.93;0.88;;;;;10.30;94679.00;;;;8294145;28;20189;-71
2024/01/03 09:11:11;;;;;;;1.60;1.10;;;;;10.30;94701.00;;;;8297090;28;20202;-72
2024/01/03 09:15:15;;;;;;;3.42;1.08;;;;;10.40;94707.00;;;;8297283;28;20252;-72
2024/01/03 09:19:18;;;;;;;0.90;0.90;;;;;10.60;94704.00;;;;8295755;28;20193;-72
2024/01/03 09:23:21;;;;;;;1.27;1.17;;;;;10.70;94711.00;;;;8296743;28;20721;-72
2024/01/03 09:27:26;;;;;;;1.83;1.00;;;;;10.90;94703.00;;;;8297607;28;20240;-72
2024/01/03 09:31:31;;;;;;;1.58;1.10;;;;;10.90;94722.00;;;;8295516;28;20225;-72
2024/01/03 09:35:35;;;;;;;1.00;0.90;;;;;10.90;94715.00;;;;8297333;28;20304;-72
2024/01/03 09:39:38;;;;;;;0.90;0.90;;;;;11.00;94704.00;;;;8292970;28;20201;-72
2024/01/03 09:43:44;;;;;;;1.00;1.00;;;;;11.10;94704.00;;;;8298553;28;20593;-72
2024/01/03 09:47:47;;;;;;;0.90;0.88;;;;;11.20;94689.00;;;;8297387;28;20186;-72
2024/01/03 09:51:52;;;;;;;0.88;0.88;;;;;11.30;94690.00;;;;8297045;28;20198;-73
2024/01/03 09:55:55;;;;;;;0.82;0.82;;;;;11.30;94680.00;;;;8297075;28;20225;-73
2024/01/03 10:00:00;;;;;;;0.90;0.90;;;;;11.30;94700.00;;;;8298413;28;20598;-73
2024/01/03 10:04:03;;;;;;;0.95;0.95;;;;;11.20;94675.00;;;;8302240;28;20563;-74
2024/01/03 10:08:17;;;;;;;1.23;1.10;;;;;11.30;94668.00;;;;8303793;28;20284;-74
2024/01/03 10:12:20;;;;;;;2.72;0.93;;;;;11.50;94701.00;;;;8304993;28;20248;-73
2024/01/03 10:16:26;;;;;;;0.88;0.88;;;;;11.50;94668.00;;;;8302512;28;20225;-73
2024/01/03 10:20:30;;;;;;;0.70;0.70;;;;;11.50;94681.00;;;;8297979;28;20182;-74
2024/01/03 10:24:41;;;;;;;1.15;1.13;;;;;11.60;94663.00;;;;8300837;28;20550;-73
2024/01/03 10:28:44;;;;;;;1.48;0.85;;;;;11.70;94682.00;;;;8302462;28;20218;-73
2024/01/03 10:32:57;;;;;;;0.88;0.80;;;;;11.80;94664.00;;;;8301414;28;20201;-73
2024/01/03 10:37:01;;;;;;;1.90;0.88;;;;;11.80;94661.00;;;;8303045;28;20655;-73
2024/01/03 10:41:04;;;;;;;3.22;1.00;;;;;11.80;94653.00;;;;8301127;28;20205;-73
2024/01/03 10:45:09;;;;;;;2.15;1.00;;;;;11.90;94662.00;;;;8302625;28;20190;-73
2024/01/03 10:49:13;;;;;;;1.13;1.02;;;;;12.00;94643.00;;;;8301738;28;20201;-74
2024/01/03 10:53:20;;;;;;;0.93;0.93;;;;;12.00;94634.00;;;;8301405;28;20189;-73
2024/01/03 10:57:28;;;;;;;0.98;0.98;;;;;12.00;94649.00;;;;8302327;28;20213;-73
2024/01/03 11:01:40;;;;;;;2.97;1.45;;;;;11.90;94636.00;;;;8302210;28;20272;-73
2024/01/03 11:05:57;;;;;;;1.00;1.00;;;;;11.80;94633.00;;;;8301918;28;20237;-73
2024/01/03 11:10:00;;;;;;;1.13;1.02;;;;;11.90;94641.00;;;;8301133;28;20186;-72
2024/01/03 11:14:23;;;;;;;3.42;1.00;;;;;11.90;94633.00;;;;8301278;28;20197;-72
2024/01/03 11:18:54;;;;;;;1.30;0.98;;;;;12.10;94628.00;;;;8302109;28;20567;-72
2024/01/03 11:23:02;;;;;;;1.67;1.38;;;;;12.30;94628.00;;;;8301255;28;20624;-73
2024/01/03 11:27:05;;;;;;;2.55;0.98;;;;;12.40;94608.00;;;;8300868;28;20229;-73
2024/01/03 11:31:09;;;;;;;2.50;1.20;;;;;12.50;94620.00;;;;8301018;28;20191;-72
2024/01/03 11:35:13;;;;;;;0.95;0.88;;;;;12.50;94617.00;;;;8300057;28;20563;-73
2024/01/03 11:39:35;;;;;;;2.38;1.10;;;;;12.60;94617.00;;;;8300581;28;20194;-73
2024/01/03 11:43:38;;;;;;;2.85;1.10;;;;;12.80;94605.00;;;;8299224;28;20182;-72
2024/01/03 11:47:42;;;;;;;0.85;0.85;;;;;12.80;94601.00;;;;8301000;28;20197;-72
2024/01/03 11:51:45;;;;;;;4.97;0.95;;;;;12.70;94604.00;;;;8300251;28;20190;-72
2024/01/03 11:55:51;;;;;;;3.45;1.17;;;;;12.60;94589.00;;;;8296903;28;20276;-72
2024/01/03 11:59:59;;;;;;;2.22;1.05;;;;;12.50;94588.00;;;;8297164;28;20247;-72
2024/01/03 12:04:10;;;;;;;2.33;1.25;;;;;12.30;94595.00;;;;8298342;28;20313;-73
2024/01/03 12:08:14;;;;;;;1.48;1.10;;;;;12.00;94600.00;;;;8299652;28;20279;-73
2024/01/03 12:12:18;;;;;;;1.17;1.02;;;;;11.70;94611.00;;;;8299896;28;20233;-72
2024/01/03 12:16:21;;;;;;;4.80;1.40;;;;;11.40;94599.00;;;;8299276;28;20233;-72
2024/01/03 12:20:26;;;;;;;2.38;1.00;;;;;11.00;94622.00;;;;8300179;28;20270;-70
2024/01/03 12:24:39;;;;;;;2.20;0.98;;;;;10.80;94589.00;;;;8300067;28;20667;-71
2024/01/03 12:28:44;;;;;;;1.33;1.20;;;;;10.80;94568.00;;;;8300407;28;20197;-72
2024/01/03 12:32:48;;;;;;;3.22;1.30;;;;;10.90;94589.00;;;;8298862;28;20309;-72
2024/01/03 12:36:52;;;;;;;4.95;1.35;;;;;11.00;94580.00;;;;8298772;28;20222;-73
2024/01/03 12:40:55;;;;;;;3.63;1.40;;;;;11.10;94598.00;;;;8299250;28;20666;-73
2024/01/03 12:45:03;;;;;;;2.67;1.10;;;;;11.20;94591.00;;;;8298672;28;20179;-74
2024/01/03 12:49:06;;;;;;;1.67;1.20;;;;;11.30;94598.00;;;;8298808;28;20240;-73
2024/01/03 12:53:09;;;;;;;3.22;1.10;;;;;11.40;94599.00;;;;8298815;28;20231;-73
2024/01/03 12:57:13;;;;;;;3.53;1.13;;;;;11.50;94600.00;;;;8298765;28;20226;-73
2024/01/03 13:01:18;;;;;;;2.17;1.30;;;;;11.50;94612.00;;;;8295767;28;20194;-73
2024/01/03 13:05:21;;;;;;;1.73;1.10;;;;;11.60;94611.00;;;;8299293;28;20178;-72
2024/01/03 13:09:24;;;;;;;4.68;1.35;;;;;11.60;94605.00;;;;8298093;28;20221;-72
2024/01/03 13:13:27;;;;;;;2.08;1.00;;;;;11.70;94599.00;;;;8298524;28;20524;-72
2024/01/03 13:17:32;;;;;;;3.33;1.40;;;;;11.80;94606.00;;;;8298888;28;20221;-71
2024/01/03 13:21:42;;;;;;;4.97;1.15;;;;;11.90;94609.00;;;;8298485;28;20594;-71
2024/01/03 13:25:51;;;;;;;2.80;1.10;;;;;11.90;94611.00;;;;8298601;28;20189;-72
2024/01/03 13:29:54;;;;;;;2.40;1.33;;;;;11.90;94617.00;;;;8298685;28;20228;-71
2024/01/03 13:33:59;;;;;;;2.78;1.10;;;;;12.00;94600.00;;;;8298383;28;20194;-72
2024/01/03 13:38:03;;;;;;;1.00;1.00;;;;;12.00;94601.00;;;;8301132;28;20226;-74
2024/01/03 13:42:07;;;;;;;3.92;1.10;;;;;12.10;94605.00;;;;8304945;28;20194;-74
2024/01/03 13:46:13;;;;;;;2.03;1.30;;;;;12.20;94604.00;;;;8304128;28;20199;-75
2024/01/03 13:50:17;;;;;;;2.17;1.23;;;;;12.30;94607.00;;;;8304023;28;20226;-69
2024/01/03 13:54:21;;;;;;;2.95;1.20;;;;;12.40;94604.00;;;;8303677;28;20226;-71
2024/01/03 13:58:24;;;;;;;1.75;1.30;;;;;12.30;94612.00;;;;8304094;28;20710;-71
2024/01/03 14:02:27;;;;;;;1.13;1.13;;;;;12.40;94601.00;;;;8304221;28;20222;-72
2024/01/03 14:06:31;;;;;;;1.33;1.23;;;;;12.30;94594.00;;;;8304269;28;20252;-72
2024/01/03 14:10:35;;;;;;;1.30;1.20;;;;;12.30;94588.00;;;;8304778;28;20631;-72
2024/01/03 14:14:40;;;;;;;1.42;1.30;;;;;12.30;94581.00;;;;8303024;28;20198;-71
2024/01/03 14:18:44;;;;;;;4.18;1.75;;;;;12.40;94593.00;;;;8299627;28;20210;-72
2024/01/03 14:23:05;;;;;;;1.48;1.05;;;;;12.40;94596.00;;;;8303584;28;20190;-68
2024/01/03 14:27:15;;;;;;;1.48;1.10;;;;;12.20;94593.00;;;;8305457;28;20276;-68
2024/01/03 14:31:21;;;;;;;2.97;1.13;;;;;12.00;94591.00;;;;8300065;28;20528;-73
2024/01/03 14:35:24;;;;;;;4.57;1.38;;;;;11.80;94590.00;;;;8301868;28;20225;-73
2024/01/03 14:39:28;;;;;;;3.47;1.20;;;;;11.30;94604.00;;;;8301971;28;20615;-74
2024/01/03 14:43:32;;;;;;;3.45;1.40;;;;;10.80;94590.00;;;;8302419;28;20199;-75
2024/01/03 14:47:36;;;;;;;4.20;1.10;;;;;10.60;94604.00;;;;8301736;28;20653;-82
2024/01/03 14:51:39;;;;;;;4.88;1.30;;;;;10.60;94598.00;;;;8302826;28;20788;-86
2024/01/03 14:55:44;;;;;;;1.40;1.17;;;;;10.50;94618.00;;;;8301724;28;20547;-80
2024/01/03 14:59:47;;;;;;;3.15;1.20;;;;;10.50;94606.00;;;;8301305;28;20222;-83
2024/01/03 15:03:50;;;;;;;2.17;1.10;;;;;10.50;94611.00;;;;8301930;28;20336;-84
2024/01/03 15:07:54;;;;;;;1.65;1.20;;;;;10.50;94604.00;;;;8300475;28;20198;-81
2024/01/03 15:11:59;;;;;;;1.75;1.30;;;;;10.60;94603.00;;;;8301676;28;20243;-81
2024/01/03 15:16:02;;;;;;;1.15;1.02;;;;;10.50;94598.00;;;;8301425;28;20197;-82
2024/01/03 15:20:07;;;;;;;1.05;1.02;;;;;10.50;94594.00;;;;8301834;28;20229;-79
2024/01/03 15:24:10;;;;;;;3.83;1.13;;;;;10.50;94605.00;;;;8299768;28;20285;-82
2024/01/03 15:28:16;;;;;;;3.10;1.15;;;;;10.50;94598.00;;;;8300987;28;20190;-82
2024/01/03 15:32:19;;;;;;;5.00;1.10;;;;;10.60;94587.00;;;;8304009;28;20520;-81
2024/01/03 15:36:22;;;;;;;1.48;1.00;;;;;10.60;94592.00;;;;8304673;28;20221;-82
2024/01/03 15:40:26;;;;;;;3.28;0.90;;;;;10.70;94590.00;;;;8302077;28;20239;-81
2024/01/03 15:44:30;;;;;;;4.10;1.30;;;;;10.70;94576.00;;;;8300131;28;20618;-83
2024/01/03 15:48:34;;;;;;;1.05;1.05;;;;;10.70;94569.00;;;;8301158;28;20199;-83
2024/01/03 15:52:37;;;;;;;1.98;1.27;;;;;10.70;94573.00;;;;8298574;28;20194;-81
2024/01/03 15:56:43;;;;;;;4.03;1.00;;;;;10.70;94573.00;;;;8298987;28;20218;-83
2024/01/03 16:00:49;;;;;;;1.10;1.10;;;;;10.80;94579.00;;;;8299068;28;20527;-82
2024/01/03 16:04:53;;;;;;;1.00;0.90;;;;;10.70;94577.00;;;;8301842;28;20252;-78
2024/01/03 16:08:56;;;;;;;1.58;1.25;;;;;10.50;94572.00;;;;8299537;28;20229;-78
2024/01/03 16:12:59;;;;;;;1.35;1.15;;;;;10.50;94569.00;;;;8300910;28;20570;-83
2024/01/03 16:17:05;;;;;;;1.77;1.10;;;;;10.60;94569.00;;;;8298022;28;20221;-83
2024/01/03 16:21:08;;;;;;;3.63;1.23;;;;;10.60;94564.00;;;;8300265;28;20182;-83
2024/01/03 16:25:11;;;;;;;3.50;1.20;;;;;10.50;94556.00;;;;8299376;28;20204;-84
2024/01/03 16:29:17;;;;;;;1.30;1.20;;;;;10.30;94556.00;;;;8299088;28;20285;-80
2024/01/03 16:33:23;;;;;;;2.30;1.20;;;;;10.20;94560.00;;;;8298824;28;20277;-82
2024/01/03 16:37:30;;;;;;;1.10;1.10;;;;;10.20;94550.00;;;;8298962;28;20253;-82
2024/01/03 16:41:33;;;;;;;3.72;1.20;;;;;10.10;94560.00;;;;8295937;28;20187;-83
2024/01/03 16:45:37;;;;;;;1.10;1.10;;;;;10.10;94549.00;;;;8299326;28;20559;-74
2024/01/03 16:49:44;;;;;;;2.42;1.13;;;;;10.00;94549.00;;;;8300117;28;20190;-74
2024/01/03 16:53:48;;;;;;;3.55;1.23;;;;;10.10;94549.00;;;;8298751;28;20614;-74
2024/01/03 16:57:51;;;;;;;2.85;1.27;;;;;10.10;94544.00;;;;8297779;28;20218;-75
2024/01/03 17:01:54;;;;;;;1.63;1.00;;;;;9.90;94541.00;;;;8294885;28;20580;-74
2024/01/03 17:05:59;;;;;;;0.98;0.98;;;;;9.90;94536.00;;;;8292623;28;20236;-74
2024/01/03 17:10:03;;;;;;;0.80;0.80;;;;;10.00;94543.00;;;;8294240;28;20193;-74
2024/01/03 17:14:06;;;;;;;1.30;1.20;;;;;10.00;94553.00;;;;8308444;28;20206;-76
2024/01/03 17:18:09;;;;;;;1.40;1.15;;;;;10.10;94565.00;;;;8308945;28;20225;-75
2024/01/03 17:22:15;;;;;;;4.82;4.13;;;;;10.10;94556.00;;;;8309192;28;20198;-76
2024/01/03 17:26:19;;;;;;;39.05;19.48;;;;;10.20;94557.00;;;;8309754;28;20604;-76
2024/01/03 17:30:22;;;;;;;138.27;72.90;;;;;10.10;94556.00;;;;8308240;28;20229;-75
2024/01/03 17:34:25;;;;;;;676.38;310.42;;;;;10.00;94554.00;;;;8310077;28;20659;-75
2024/01/03 17:38:30;;;;;;;66.00;34.33;;;;;9.90;94553.00;;;;8309324;28;20268;-73
2024/01/03 17:42:34;;;;;;;63.28;35.08;;;;;9.90;94545.00;;;;8309508;28;20194;-73
2024/01/03 17:46:37;;;;;;;16.02;11.13;;;;;9.90;94549.00;;;;8308916;28;20229;-73
2024/01/03 17:50:40;;;;;;;6.32;5.72;;;;;9.90;94534.00;;;;8309219;28;20279;-74
2024/01/03 17:54:44;;;;;;;4.78;4.30;;;;;9.90;94529.00;;;;8309047;28;20466;-74
2024/01/03 17:58:48;;;;;;;6.53;5.95;;;;;9.90;94530.00;;;;8308250;28;20313;-74
2024/01/03 18:02:51;;;;;;;6.57;5.97;;;;;10.00;94520.00;;;;8310426;28;20681;-74
2024/01/03 18:06:54;;;;;;;2.92;1.70;;;;;10.00;94526.00;;;;8309370;28;20197;-73
2024/01/03 18:10:59;;;;;;;3.10;1.70;;;;;10.10;94516.00;;;;8310114;28;20201;-74
2024/01/03 18:15:02;;;;;;;2.15;1.40;;;;;10.10;94525.00;;;;8307819;28;20198;-74
2024/01/03 18:19:05;;;;;;;2.33;1.52;;;;;10.20;94528.00;;;;8306249;28;20253;-71
2024/01/03 18:23:13;;;;;;;2.72;2.03;;;;;10.30;94514.00;;;;8304913;28;20200;-72
2024/01/03 18:27:19;;;;;;;3.38;1.33;;;;;10.30;94523.00;;;;8304225;28;20269;-73
2024/01/03 18:31:24;;;;;;;3.17;1.88;;;;;10.40;94501.00;;;;8304398;28;20216;-72
2024/01/03 18:35:30;;;;;;;2.63;1.20;;;;;10.40;94499.00;;;;8303494;28;20187;-72
2024/01/03 18:39:33;;;;;;;2.47;1.10;;;;;10.50;94492.00;;;;8303230;28;20222;-72
2024/01/03 18:43:37;;;;;;;1.45;1.35;;;;;10.50;94486.00;;;;8304415;28;20192;-71
2024/01/03 18:47:41;;;;;;;1.23;1.08;;;;;10.60;94492.00;;;;8302537;28;20194;-72
2024/01/03 18:51:45;;;;;;;1.65;1.08;;;;;10.60;94471.00;;;;8302590;28;20277;-72
2024/01/03 18:55:48;;;;;;;1.30;1.10;;;;;10.60;94479.00;;;;8303663;28;20198;-73
2024/01/03 18:59:52;;;;;;;1.85;0.93;;;;;10.60;94473.00;;;;8302740;28;20261;-73
2024/01/03 19:03:56;;;;;;;1.60;1.00;;;;;10.60;94466.00;;;;8303283;28;20331;-73
2024/01/03 19:07:59;;;;;;;1.00;1.00;;;;;10.70;94444.00;;;;8302976;28;20206;-73
2024/01/03 19:12:02;;;;;;;1.17;1.00;;;;;10.70;94451.00;;;;8299532;28;20246;-73
2024/01/03 19:16:08;;;;;;;3.20;1.30;;;;;10.80;94444.00;;;;8301823;28;20635;-73
2024/01/03 19:20:12;;;;;;;2.00;1.15;;;;;10.80;94432.00;;;;8300423;28;20268;-73
2024/01/03 19:24:15;;;;;;;1.17;1.00;;;;;10.90;94432.00;;;;8302110;28;20212;-72
2024/01/03 19:28:18;;;;;;;1.15;1.08;;;;;11.00;94433.00;;;;8301606;28;20591;-73
2024/01/03 19:32:23;;;;;;;4.90;1.00;;;;;11.00;94444.00;;;;8301762;28;20194;-73
2024/01/03 19:36:26;;;;;;;0.90;0.90;;;;;11.00;94450.00;;;;8300120;28;20232;-73
2024/01/03 19:40:29;;;;;;;1.20;1.10;;;;;10.90;94439.00;;;;8301385;28;20231;-74
2024/01/03 19:44:33;;;;;;;0.93;0.93;;;;;10.70;94456.00;;;;8301030;28;20701;-74
2024/01/03 19:48:37;;;;;;;2.85;1.30;;;;;10.60;94446.00;;;;8301389;28;20198;-73
2024/01/03 19:52:40;;;;;;;1.55;1.20;;;;;10.50;94443.00;;;;8301468;28;20334;-73
2024/01/03 19:56:43;;;;;;;1.23;1.00;;;;;10.30;94456.00;;;;8301188;28;20195;-74
2024/01/03 20:00:47;;;;;;;2.83;1.40;;;;;9.90;94447.00;;;;8300196;28;20267;-72
2024/01/03 20:04:52;;;;;;;6.70;1.33;;;;;9.60;94437.00;;;;8301996;28;20229;-72
2024/01/03 20:08:56;;;;;;;3.50;1.17;;;;;9.40;94443.00;;;;8300202;28;20226;-72
2024/01/03 20:13:00;;;;;;;0.85;0.85;;;;;9.30;94427.00;;;;8300229;28;20221;-72
2024/01/03 20:17:03;;;;;;;0.80;0.80;;;;;9.40;94460.00;;;;8300612;28;20567;-72
2024/01/03 20:21:08;;;;;;;1.08;1.08;;;;;9.50;94465.00;;;;8300919;28;20583;-72
2024/01/03 20:25:12;;;;;;;1.00;1.00;;;;;9.60;94455.00;;;;8301068;28;20563;-73
2024/01/03 20:29:16;;;;;;;1.35;1.25;;;;;9.60;94459.00;;;;8299574;28;20202;-74